Time;durP1;ratioP1;P1;durP2;ratioP2;P2;SDS_P1;SDS_P2;PMS_P1;PMS_P2;Temp;Humidity;BMP_temperature;BMP_pressure;BME280_temperature;BME280_humidity;BME280_pressure;Samples;Min_cycle;Max_cycle;Signal;HPM_P1;HPM_P2
2022/07/13 00:01:21;;;;;;;3.75;2.50;;;21.10;99.90;;;;;;5050440;28;20060;-87
2022/07/13 00:03:47;;;;;;;3.25;2.22;;;21.10;99.90;;;;;;5051533;28;20037;-87
2022/07/13 00:06:13;;;;;;;5.88;2.53;;;21.10;99.90;;;;;;5051256;28;20572;-86
2022/07/13 00:08:39;;;;;;;4.05;2.40;;;21.10;99.90;;;;;;5050727;28;20033;-87
2022/07/13 00:11:04;;;;;;;5.53;2.70;;;21.10;99.90;;;;;;5050204;28;20473;-87
2022/07/13 00:13:30;;;;;;;4.13;2.78;;;21.10;99.90;;;;;;5051520;28;20025;-87
2022/07/13 00:15:56;;;;;;;4.00;2.65;;;21.10;99.90;;;;;;5051194;28;20548;-87
2022/07/13 00:18:24;;;;;;;4.40;2.95;;;21.10;99.90;;;;;;5051715;28;20049;-87
2022/07/13 00:20:50;;;;;;;4.28;3.08;;;21.10;99.90;;;;;;5049870;28;20029;-87
2022/07/13 00:23:16;;;;;;;4.90;3.00;;;21.10;99.90;;;;;;5051425;28;20033;-88
2022/07/13 00:25:42;;;;;;;4.82;3.22;;;21.10;99.90;;;;;;5049941;28;20455;-87
2022/07/13 00:28:07;;;;;;;4.30;3.00;;;21.10;99.90;;;;;;5051122;28;20039;-87
2022/07/13 00:30:33;;;;;;;5.88;3.30;;;21.10;99.90;;;;;;5050943;28;20389;-87
2022/07/13 00:32:59;;;;;;;5.45;3.30;;;21.10;99.90;;;;;;5051067;28;20033;-87
2022/07/13 00:35:25;;;;;;;4.38;2.90;;;21.10;99.90;;;;;;5049674;28;20219;-87
2022/07/13 00:37:51;;;;;;;5.28;3.10;;;21.10;99.90;;;;;;5049715;28;20028;-87
2022/07/13 00:40:17;;;;;;;5.95;3.40;;;21.10;99.90;;;;;;5049574;28;20028;-87
2022/07/13 00:42:43;;;;;;;7.95;4.20;;;21.10;99.90;;;;;;5051174;28;20115;-87
2022/07/13 00:45:09;;;;;;;7.63;4.00;;;21.00;99.90;;;;;;5033189;28;20131;-88
2022/07/13 00:47:37;;;;;;;5.00;3.30;;;21.00;99.90;;;;;;5050860;28;20025;-87
2022/07/13 00:50:06;;;;;;;4.95;3.47;;;20.90;99.90;;;;;;5033001;28;20059;-87
2022/07/13 00:52:36;;;;;;;6.25;3.78;;;20.90;99.90;;;;;;5032841;28;20116;-87
2022/07/13 00:55:03;;;;;;;6.75;3.97;;;20.90;99.90;;;;;;5049905;28;20056;-87
2022/07/13 00:57:32;;;;;;;6.13;3.65;;;20.80;99.90;;;;;;5049408;28;20040;-87
2022/07/13 00:59:58;;;;;;;5.13;3.45;;;20.80;99.90;;;;;;5049753;28;20029;-87
2022/07/13 01:02:24;;;;;;;7.03;3.97;;;20.90;99.90;;;;;;5049542;28;20497;-87
2022/07/13 01:04:50;;;;;;;4.97;3.40;;;20.90;99.90;;;;;;5050905;28;20104;-87
2022/07/13 01:07:16;;;;;;;6.00;4.10;;;20.90;99.90;;;;;;5050626;28;20021;-87
2022/07/13 01:09:42;;;;;;;5.38;3.58;;;20.80;99.90;;;;;;5049391;28;20040;-87
2022/07/13 01:12:08;;;;;;;5.80;3.50;;;20.80;99.90;;;;;;5049536;28;20048;-87
2022/07/13 01:14:35;;;;;;;5.07;3.45;;;20.80;99.90;;;;;;5049600;28;20111;-87
2022/07/13 01:17:02;;;;;;;5.38;3.58;;;20.80;99.90;;;;;;5049151;28;20024;-87
2022/07/13 01:19:28;;;;;;;4.63;3.45;;;20.80;99.90;;;;;;5049298;28;20489;-87
2022/07/13 01:22:00;;;;;;;4.85;3.50;;;20.80;99.90;;;;;;5049488;28;20029;-86
2022/07/13 01:24:29;;;;;;;6.10;3.85;;;20.80;99.90;;;;;;5050899;28;20505;-87
2022/07/13 01:26:56;;;;;;;6.32;4.15;;;20.80;99.90;;;;;;5049170;28;20029;-87
2022/07/13 01:29:22;;;;;;;5.85;3.53;;;20.80;99.90;;;;;;5049240;28;20029;-86
2022/07/13 01:31:48;;;;;;;5.43;3.67;;;20.80;99.90;;;;;;5049493;28;20052;-86
2022/07/13 01:34:14;;;;;;;4.22;3.30;;;20.80;99.90;;;;;;5050908;28;20179;-87
2022/07/13 01:36:42;;;;;;;5.50;3.20;;;20.80;99.90;;;;;;5049356;28;20029;-87
2022/07/13 01:39:09;;;;;;;4.57;3.20;;;20.80;99.90;;;;;;5049289;28;20029;-87
2022/07/13 01:41:36;;;;;;;4.60;3.50;;;20.80;99.90;;;;;;5049485;28;20040;-86
2022/07/13 01:44:02;;;;;;;5.15;3.38;;;20.80;99.90;;;;;;5049134;28;20033;-87
2022/07/13 01:46:29;;;;;;;6.20;3.30;;;20.80;99.90;;;;;;5050703;28;20039;-87
2022/07/13 01:48:57;;;;;;;;;;;20.80;99.90;;;;;;5033656;28;20029;-86
2022/07/13 01:51:23;;;;;;;5.97;3.30;;;20.80;99.90;;;;;;5051481;28;20489;-87
2022/07/13 01:53:49;;;;;;;5.50;3.22;;;20.80;99.90;;;;;;5049788;28;20451;-87
2022/07/13 01:56:15;;;;;;;3.90;3.03;;;20.80;99.90;;;;;;5050175;28;20025;-87
2022/07/13 01:58:41;;;;;;;5.35;3.33;;;20.80;99.90;;;;;;5048493;28;20397;-87
2022/07/13 02:01:07;;;;;;;5.22;3.58;;;20.80;99.90;;;;;;5048748;28;20028;-87
2022/07/13 02:03:33;;;;;;;5.30;3.50;;;20.80;99.90;;;;;;5050278;28;20029;-87
2022/07/13 02:05:59;;;;;;;4.45;3.28;;;20.80;99.90;;;;;;5052103;28;20033;-87
2022/07/13 02:08:27;;;;;;;4.15;2.75;;;20.80;99.90;;;;;;5052213;28;20033;-86
2022/07/13 02:10:54;;;;;;;6.40;2.42;;;20.90;99.90;;;;;;5035693;28;20074;-87
2022/07/13 02:13:21;;;;;;;4.88;3.13;;;20.90;99.90;;;;;;5052364;28;20082;-87
2022/07/13 02:15:47;;;;;;;3.58;2.20;;;20.90;99.90;;;;;;5052617;28;20527;-87
2022/07/13 02:18:13;;;;;;;4.30;3.10;;;21.00;99.90;;;;;;5052107;28;20037;-87
2022/07/13 02:20:39;;;;;;;4.55;2.78;;;21.00;99.90;;;;;;5052100;28;20468;-88
2022/07/13 02:23:05;;;;;;;5.13;2.70;;;20.90;99.90;;;;;;5035631;28;20132;-87
2022/07/13 02:25:37;;;;;;;4.50;2.80;;;21.00;99.90;;;;;;5035701;28;20028;-87
2022/07/13 02:28:06;;;;;;;4.65;3.15;;;21.00;99.90;;;;;;5035494;28;20032;-87
2022/07/13 02:30:33;;;;;;;4.82;3.10;;;20.90;99.90;;;;;;5051860;28;20119;-87
2022/07/13 02:32:59;;;;;;;4.00;2.47;;;20.90;99.90;;;;;;5052018;28;20481;-87
2022/07/13 02:35:25;;;;;;;4.32;2.70;;;20.90;99.90;;;;;;5051877;28;20051;-87
2022/07/13 02:37:51;;;;;;;6.18;3.40;;;20.90;99.90;;;;;;5053094;28;20505;-87
2022/07/13 02:40:17;;;;;;;4.97;3.22;;;20.90;99.90;;;;;;5052817;28;20571;-87
2022/07/13 02:42:44;;;;;;;5.32;3.08;;;20.90;99.90;;;;;;5051926;28;20033;-87
2022/07/13 02:45:13;;;;;;;4.32;2.67;;;20.90;99.90;;;;;;5035612;28;20036;-87
2022/07/13 02:47:39;;;;;;;4.53;2.80;;;20.90;99.90;;;;;;5051594;28;20029;-87
2022/07/13 02:50:05;;;;;;;4.40;2.88;;;20.90;99.90;;;;;;5052696;28;20413;-87
2022/07/13 02:52:31;;;;;;;5.38;3.45;;;20.90;99.90;;;;;;5051808;28;20036;-87
2022/07/13 02:54:58;;;;;;;4.75;3.35;;;20.90;99.90;;;;;;5051551;28;20474;-87
2022/07/13 02:57:25;;;;;;;4.32;3.13;;;20.90;99.90;;;;;;5034774;28;20060;-87
2022/07/13 02:59:55;;;;;;;4.78;3.15;;;20.90;99.90;;;;;;5051204;28;20029;-87
2022/07/13 03:02:22;;;;;;;5.00;3.65;;;20.90;99.90;;;;;;5051480;28;20024;-87
2022/07/13 03:04:47;;;;;;;5.78;3.60;;;20.90;99.90;;;;;;5052592;28;20506;-87
2022/07/13 03:07:15;;;;;;;5.78;3.67;;;20.90;99.90;;;;;;5051125;28;20428;-87
2022/07/13 03:09:40;;;;;;;6.45;3.90;;;20.90;99.90;;;;;;5050942;28;20033;-87
2022/07/13 03:12:06;;;;;;;7.60;3.38;;;20.90;99.90;;;;;;5051301;28;20086;-87
2022/07/13 03:14:33;;;;;;;5.05;3.08;;;20.90;99.90;;;;;;5034511;28;20431;-87
2022/07/13 03:16:59;;;;;;;5.57;3.13;;;20.90;99.90;;;;;;5034524;28;20035;-87
2022/07/13 03:19:25;;;;;;;4.72;2.97;;;20.90;99.90;;;;;;5050959;28;20033;-86
2022/07/13 03:21:51;;;;;;;5.25;2.95;;;20.90;99.90;;;;;;5052234;28;20082;-87
2022/07/13 03:24:17;;;;;;;5.20;3.20;;;20.90;99.90;;;;;;5034566;28;20113;-86
2022/07/13 03:26:43;;;;;;;5.65;3.42;;;20.90;99.90;;;;;;5050856;28;20030;-85
2022/07/13 03:29:09;;;;;;;4.13;2.95;;;20.90;99.90;;;;;;5051185;28;20121;-86
2022/07/13 03:31:37;;;;;;;4.95;3.10;;;20.90;99.90;;;;;;5050843;28;20035;-85
2022/07/13 03:34:03;;;;;;;4.13;2.80;;;20.80;99.90;;;;;;5050422;28;20075;-82
2022/07/13 03:36:30;;;;;;;5.22;3.30;;;20.90;99.90;;;;;;5050853;28;20041;-83
2022/07/13 03:38:58;;;;;;;5.05;3.35;;;20.80;99.90;;;;;;5033872;28;20258;-82
2022/07/13 03:41:24;;;;;;;4.20;3.10;;;20.80;99.90;;;;;;5050174;28;20028;-83
2022/07/13 03:43:50;;;;;;;5.60;2.97;;;20.80;99.90;;;;;;5032383;28;20025;-82
2022/07/13 03:46:16;;;;;;;5.80;3.17;;;20.80;99.90;;;;;;5031292;28;20092;-84
2022/07/13 03:48:42;;;;;;;6.70;3.10;;;20.80;99.90;;;;;;5049452;28;20098;-83
2022/07/13 03:51:08;;;;;;;5.78;3.20;;;20.80;99.90;;;;;;5049012;28;20021;-82
2022/07/13 03:53:34;;;;;;;5.30;3.08;;;20.80;99.90;;;;;;5049168;28;20036;-83
2022/07/13 03:56:00;;;;;;;7.35;3.58;;;20.80;99.90;;;;;;5048960;28;20033;-83
2022/07/13 03:58:26;;;;;;;4.32;2.97;;;20.80;99.90;;;;;;5049095;28;20031;-83
2022/07/13 04:00:52;;;;;;;5.32;2.92;;;20.90;99.90;;;;;;5048305;28;20028;-83
2022/07/13 04:03:18;;;;;;;5.03;2.97;;;20.90;99.90;;;;;;5048732;28;20037;-83
2022/07/13 04:05:44;;;;;;;4.13;2.30;;;20.90;99.90;;;;;;5032003;28;20037;-83
2022/07/13 04:08:09;;;;;;;5.10;3.00;;;20.90;99.90;;;;;;5048720;28;20033;-82
2022/07/13 04:10:36;;;;;;;3.85;2.53;;;20.90;99.90;;;;;;5050017;28;20028;-83
2022/07/13 04:13:02;;;;;;;5.18;2.92;;;21.00;99.90;;;;;;5049058;28;20021;-83
2022/07/13 04:15:29;;;;;;;3.55;2.00;;;21.00;99.90;;;;;;5048339;28;20115;-83
2022/07/13 04:17:55;;;;;;;4.97;2.95;;;21.00;99.90;;;;;;5048303;28;20115;-83
2022/07/13 04:20:21;;;;;;;3.53;2.47;;;21.00;99.90;;;;;;5048448;28;20485;-83
2022/07/13 04:22:47;;;;;;;5.22;3.05;;;21.00;99.90;;;;;;5050355;28;20055;-83
2022/07/13 04:25:13;;;;;;;5.60;2.65;;;21.00;99.90;;;;;;5048321;28;20060;-82
2022/07/13 04:27:40;;;;;;;5.72;2.63;;;21.10;99.90;;;;;;5048320;28;20452;-83
2022/07/13 04:30:07;;;;;;;7.00;3.00;;;21.10;99.90;;;;;;5047850;28;20021;-84
2022/07/13 04:32:34;;;;;;;3.92;2.45;;;21.10;99.90;;;;;;5048424;28;20535;-83
2022/07/13 04:34:59;;;;;;;4.78;2.70;;;21.10;99.80;;;;;;5048558;28;20044;-82
2022/07/13 04:37:28;;;;;;;5.72;2.67;;;21.10;99.60;;;;;;5048449;28;20464;-81
2022/07/13 04:39:54;;;;;;;4.50;2.47;;;21.10;99.50;;;;;;5065017;28;20094;-84
2022/07/13 04:42:20;;;;;;;7.03;2.45;;;21.10;99.40;;;;;;5048630;28;20477;-84
2022/07/13 04:44:46;;;;;;;6.18;2.42;;;21.10;99.40;;;;;;5064575;28;20029;-84
2022/07/13 04:47:12;;;;;;;4.60;2.30;;;21.10;99.30;;;;;;5064515;28;20037;-84
2022/07/13 04:49:59;;;;;;;4.32;2.05;;;21.20;99.30;;;;;;5068227;28;20051;-90
2022/07/13 04:52:25;;;;;;;3.65;2.17;;;21.20;99.30;;;;;;5060221;28;20499;-87
2022/07/13 04:54:51;;;;;;;5.05;2.17;;;21.20;99.20;;;;;;5068181;28;20485;-84
2022/07/13 04:57:33;;;;;;;3.83;2.20;;;21.20;99.20;;;;;;5051999;28;20039;-89
2022/07/13 04:59:59;;;;;;;4.30;2.28;;;21.20;99.30;;;;;;5068068;28;20036;-88
2022/07/13 05:02:25;;;;;;;4.18;2.58;;;21.20;99.20;;;;;;5067997;28;20581;-84
2022/07/13 05:04:51;;;;;;;4.72;2.45;;;21.20;99.20;;;;;;5067807;28;20029;-87
2022/07/13 05:07:17;;;;;;;3.80;2.38;;;21.30;99.30;;;;;;5067997;28;20484;-87
2022/07/13 05:09:43;;;;;;;6.07;2.47;;;21.30;99.20;;;;;;5068126;23;20074;-81
2022/07/13 05:12:09;;;;;;;5.07;2.83;;;21.30;99.20;;;;;;5047065;28;20125;-83
2022/07/13 05:14:35;;;;;;;3.75;2.33;;;21.30;99.10;;;;;;5048393;28;20404;-82
2022/07/13 05:17:01;;;;;;;5.65;2.33;;;21.30;99.10;;;;;;5065727;28;20468;-82
2022/07/13 05:19:29;;;;;;;5.28;3.15;;;21.30;99.10;;;;;;5048387;28;20775;-82
2022/07/13 05:21:56;;;;;;;5.70;2.72;;;21.40;99.10;;;;;;5049443;28;20032;-81
2022/07/13 05:24:21;;;;;;;4.00;2.30;;;21.40;99.00;;;;;;5049523;28;20587;-81
2022/07/13 05:26:47;;;;;;;4.93;2.55;;;21.40;98.90;;;;;;5050918;28;20111;-82
2022/07/13 05:29:13;;;;;;;4.57;2.30;;;21.50;98.80;;;;;;5049669;28;20127;-82
2022/07/13 05:31:40;;;;;;;5.78;2.58;;;21.50;99.00;;;;;;5051271;28;20325;-82
2022/07/13 05:34:08;;;;;;;4.22;2.15;;;21.50;98.60;;;;;;5050450;28;20404;-81
2022/07/13 05:36:36;;;;;;;6.10;2.50;;;21.50;98.50;;;;;;5068070;28;20024;-82
2022/07/13 05:39:04;;;;;;;4.55;2.75;;;21.60;98.50;;;;;;5037950;28;20393;-81
2022/07/13 05:41:29;;;;;;;3.83;2.63;;;21.60;98.40;;;;;;5071394;28;20036;-83
2022/07/13 05:43:55;;;;;;;5.35;2.92;;;21.60;98.40;;;;;;5072616;28;20497;-82
2022/07/13 05:46:22;;;;;;;5.10;2.50;;;21.60;98.30;;;;;;5053964;28;20039;-83
2022/07/13 05:48:48;;;;;;;3.55;2.20;;;21.70;98.20;;;;;;5053847;28;20032;-83
2022/07/13 05:51:14;;;;;;;4.63;2.50;;;21.70;98.10;;;;;;5054679;28;20111;-82
2022/07/13 05:53:40;;;;;;;6.55;2.65;;;21.80;98.00;;;;;;5054964;28;20090;-82
2022/07/13 05:56:07;;;;;;;5.38;2.95;;;21.80;97.90;;;;;;5071185;28;20028;-82
2022/07/13 05:58:32;;;;;;;6.05;3.10;;;21.90;97.80;;;;;;5072426;28;20304;-82
2022/07/13 06:00:58;;;;;;;5.50;3.47;;;21.90;97.80;;;;;;5072014;28;20115;-83
2022/07/13 06:03:24;;;;;;;5.30;2.83;;;21.90;97.70;;;;;;5072290;28;20028;-83
2022/07/13 06:05:50;;;;;;;7.10;3.88;;;22.00;97.70;;;;;;5072134;28;20536;-83
2022/07/13 06:08:16;;;;;;;5.03;2.65;;;22.00;97.40;;;;;;5071742;28;20035;-83
2022/07/13 06:10:41;;;;;;;3.78;2.45;;;22.10;97.40;;;;;;5072028;28;20036;-83
2022/07/13 06:13:07;;;;;;;3.88;2.35;;;22.10;97.30;;;;;;5071973;28;20027;-82
2022/07/13 06:15:33;;;;;;;4.75;2.33;;;22.10;97.00;;;;;;5071478;28;20027;-80
2022/07/13 06:17:58;;;;;;;5.82;2.60;;;22.20;96.90;;;;;;5073645;28;20032;-82
2022/07/13 06:20:24;;;;;;;3.65;2.17;;;22.20;97.10;;;;;;5071992;28;20292;-82
2022/07/13 06:25:38;;;;;;;3.60;1.95;;;22.20;97.00;;;;;;5071732;28;20539;-88
2022/07/13 06:28:05;;;;;;;3.83;1.80;;;22.30;97.00;;;;;;5054007;28;20469;-88
2022/07/13 06:30:31;;;;;;;4.68;2.75;;;22.30;97.00;;;;;;5070912;28;20032;-87
2022/07/13 06:32:57;;;;;;;6.15;3.13;;;22.30;97.10;;;;;;5087145;28;20032;-89
2022/07/13 06:35:23;;;;;;;7.32;3.78;;;22.30;97.20;;;;;;5071659;28;20460;-87
2022/07/13 06:37:52;;;;;;;6.10;3.40;;;22.30;97.20;;;;;;5071653;28;20090;-86
2022/07/13 06:40:18;;;;;;;6.53;3.58;;;22.30;97.00;;;;;;5071189;28;20033;-86
2022/07/13 06:42:44;;;;;;;5.63;3.60;;;22.30;97.00;;;;;;5052805;28;20418;-84
2022/07/13 06:45:10;;;;;;;6.35;3.28;;;22.30;96.90;;;;;;5070511;28;20481;-86
2022/07/13 06:47:45;;;;;;;8.18;3.55;;;22.30;96.70;;;;;;5071100;28;20085;-90
2022/07/13 06:50:20;;;;;;;5.13;3.30;;;22.30;96.50;;;;;;5036039;28;20158;-95
2022/07/13 06:53:24;;;;;;;7.15;3.10;;;22.40;96.60;;;;;;5068236;28;20028;-89
2022/07/13 06:55:55;;;;;;;6.28;2.97;;;22.40;96.40;;;;;;5070668;28;20032;-87
2022/07/13 06:58:31;;;;;;;5.93;2.90;;;22.40;96.70;;;;;;5054296;28;20028;-86
2022/07/13 07:01:08;;;;;;;;;;;;;;;;;;;;;
2022/07/13 07:03:41;;;;;;;5.07;2.78;;;22.50;96.10;;;;;;5070202;28;20035;-86
2022/07/13 07:06:07;;;;;;;5.75;2.75;;;22.50;96.00;;;;;;5069667;28;20025;-86
2022/07/13 07:08:34;;;;;;;5.35;2.65;;;22.60;95.70;;;;;;5068872;28;20025;-88
2022/07/13 07:11:00;;;;;;;5.47;3.05;;;22.60;95.70;;;;;;5051224;28;20029;-79
2022/07/13 07:13:26;;;;;;;3.83;2.30;;;22.70;95.60;;;;;;5068986;28;20038;-81
2022/07/13 07:15:52;;;;;;;3.65;2.25;;;22.70;95.30;;;;;;5067889;28;20028;-83
2022/07/13 07:18:21;;;;;;;6.20;2.50;;;22.70;95.70;;;;;;5068803;28;20048;-79
2022/07/13 07:20:48;;;;;;;4.97;2.20;;;22.60;95.80;;;;;;5069805;28;20090;-89
2022/07/13 07:23:14;;;;;;;4.28;2.63;;;22.70;95.20;;;;;;5069778;28;20054;-83
2022/07/13 07:25:40;;;;;;;4.50;2.45;;;22.70;94.90;;;;;;5069984;28;20032;-89
2022/07/13 07:28:07;;;;;;;5.30;2.33;;;22.80;94.70;;;;;;5031000;28;20036;-89
2022/07/13 07:30:33;;;;;;;5.55;2.78;;;22.90;94.50;;;;;;5048091;28;20025;-90
2022/07/13 07:32:59;;;;;;;7.40;3.05;;;23.00;94.00;;;;;;5049292;28;20029;-83
2022/07/13 07:35:24;;;;;;;7.57;3.38;;;23.10;93.80;;;;;;5050411;28;20186;-82
2022/07/13 07:37:50;;;;;;;7.47;3.03;;;23.20;94.10;;;;;;5049752;28;20059;-84
2022/07/13 07:40:16;;;;;;;8.48;2.90;;;23.30;94.40;;;;;;5049779;28;20114;-82
2022/07/13 07:42:42;;;;;;;5.75;3.03;;;23.40;93.60;;;;;;5049767;28;20548;-82
2022/07/13 07:45:08;;;;;;;5.82;3.13;;;23.40;93.30;;;;;;5048994;28;20032;-88
2022/07/13 07:47:34;;;;;;;5.70;3.15;;;23.40;93.80;;;;;;5049444;28;20033;-83
2022/07/13 07:50:00;;;;;;;9.32;3.15;;;23.40;93.90;;;;;;5048354;28;20035;-82
2022/07/13 07:52:26;;;;;;;6.95;3.15;;;23.50;93.90;;;;;;5050018;28;20029;-86
2022/07/13 07:54:51;;;;;;;9.95;3.40;;;23.50;93.80;;;;;;5048879;28;20025;-84
2022/07/13 07:57:17;;;;;;;8.35;3.10;;;23.50;93.20;;;;;;5047550;28;20032;-84
2022/07/13 07:59:43;;;;;;;8.02;3.10;;;23.60;93.40;;;;;;5046740;28;20446;-85
2022/07/13 08:02:09;;;;;;;6.57;3.00;;;23.60;93.60;;;;;;5047708;28;20122;-85
2022/07/13 08:04:35;;;;;;;6.72;2.80;;;23.80;93.10;;;;;;5046392;28;20053;-84
2022/07/13 08:07:01;;;;;;;8.13;3.30;;;23.70;93.00;;;;;;5047583;28;20479;-84
2022/07/13 08:09:27;;;;;;;7.97;2.92;;;23.80;93.00;;;;;;5051655;28;20113;-84
2022/07/13 08:11:53;;;;;;;6.15;2.90;;;23.80;93.00;;;;;;5051215;28;20492;-84
2022/07/13 08:14:19;;;;;;;4.65;2.58;;;23.80;92.90;;;;;;5068391;28;20036;-84
2022/07/13 08:16:45;;;;;;;5.10;2.95;;;23.80;92.70;;;;;;5067632;28;20112;-84
2022/07/13 08:19:11;;;;;;;6.10;2.97;;;23.90;92.30;;;;;;5050573;28;20029;-85
2022/07/13 08:21:37;;;;;;;7.22;2.70;;;23.90;92.10;;;;;;5069281;28;20027;-84
2022/07/13 08:24:03;;;;;;;6.85;2.83;;;23.90;92.10;;;;;;5067915;28;20071;-84
2022/07/13 08:26:29;;;;;;;4.80;2.33;;;24.00;92.20;;;;;;5068749;28;20377;-84
2022/07/13 08:28:57;;;;;;;5.32;2.78;;;23.90;92.50;;;;;;5050819;28;20032;-85
2022/07/13 08:31:24;;;;;;;6.30;2.33;;;24.10;91.20;;;;;;5068253;28;20070;-84
2022/07/13 08:39:20;;;;;;;6.38;2.50;;;24.30;89.40;;;;;;5068840;28;20094;-83
2022/07/13 08:41:47;;;;;;;7.05;2.40;;;24.30;88.50;;;;;;5069223;28;20583;-84
2022/07/13 08:44:14;;;;;;;8.38;2.30;;;24.40;88.10;;;;;;5050350;28;20028;-84
2022/07/13 08:46:41;;;;;;;4.53;2.80;;;24.40;88.00;;;;;;5034074;28;20078;-84
2022/07/13 08:49:08;;;;;;;6.13;2.65;;;24.50;88.20;;;;;;5049733;28;20040;-84
2022/07/13 08:51:35;;;;;;;5.50;3.00;;;24.50;87.30;;;;;;5068761;28;20116;-83
2022/07/13 08:54:04;;;;;;;9.32;3.88;;;24.50;87.90;;;;;;5068725;28;20028;-82
2022/07/13 08:56:32;;;;;;;5.82;2.60;;;24.50;87.20;;;;;;5069047;28;20033;-83
2022/07/13 08:59:10;;;;;;;;;;;;;;;;;;;;;
2022/07/13 09:01:43;;;;;;;7.38;3.35;;;24.60;87.20;;;;;;5069066;28;20052;-91
2022/07/13 09:04:11;;;;;;;7.13;2.97;;;24.70;87.30;;;;;;5068543;28;20035;-84
2022/07/13 09:06:48;;;;;;;6.43;2.88;;;24.70;87.30;;;;;;5050594;28;20469;-84
2022/07/13 09:09:25;;;;;;;7.28;3.33;;;24.80;86.70;;;;;;5068137;28;20037;-89
2022/07/13 09:11:51;;;;;;;6.17;2.93;;;24.90;86.70;;;;;;5070194;28;20035;-87
2022/07/13 09:14:26;;;;;;;7.50;2.80;;;24.90;87.80;;;;;;5054305;28;20028;-85
2022/07/13 09:16:52;;;;;;;5.68;2.42;;;25.00;87.50;;;;;;5056782;28;20031;-88
2022/07/13 09:19:23;;;;;;;7.03;2.78;;;25.00;88.60;;;;;;5061581;22;20036;-68
2022/07/13 09:21:49;;;;;;;6.35;2.60;;;25.00;90.10;;;;;;5073023;28;20625;-67
2022/07/13 09:24:15;;;;;;;8.25;2.80;;;25.00;89.30;;;;;;5072867;28;20078;-66
2022/07/13 09:26:42;;;;;;;5.28;2.53;;;25.00;90.80;;;;;;5072869;28;20425;-66
2022/07/13 09:29:11;;;;;;;4.30;2.60;;;25.00;89.80;;;;;;5072382;28;20063;-67
2022/07/13 09:31:50;;;;;;;;;;;25.00;89.10;;;;;;5071726;28;20052;-66
2022/07/13 09:34:17;;;;;;;7.65;3.10;;;25.00;88.90;;;;;;5072636;28;19913;-65
2022/07/13 09:36:42;;;;;;;6.78;3.10;;;25.10;89.60;;;;;;5072621;28;20032;-65
2022/07/13 09:39:11;;;;;;;6.90;3.25;;;25.10;88.90;;;;;;5071111;28;20570;-66
2022/07/13 09:41:38;;;;;;;5.38;2.92;;;25.10;89.30;;;;;;5072602;28;20032;-67
2022/07/13 09:46:57;;;;;;;6.22;2.83;;;25.20;88.50;;;;;;5072548;28;20024;-67
2022/07/13 09:49:41;;;;;;;4.43;2.22;;;25.20;88.00;;;;;;5071904;28;20504;-67
2022/07/13 09:52:09;;;;;;;6.05;3.47;;;25.30;88.50;;;;;;5073005;28;20108;-65
2022/07/13 09:54:39;;;;;;;8.68;2.75;;;25.20;89.90;;;;;;5058281;28;20025;-66
2022/07/13 09:57:08;;;;;;;5.70;3.20;;;25.20;88.90;;;;;;5052100;28;20087;-66
2022/07/13 09:59:42;;;;;;;6.65;2.83;;;25.20;89.30;;;;;;5051448;28;20096;-66
2022/07/13 10:02:09;;;;;;;6.88;3.38;;;25.20;88.80;;;;;;5052816;28;20048;-66
2022/07/13 10:04:35;;;;;;;4.38;2.40;;;25.30;88.30;;;;;;5052456;28;20454;-66
2022/07/13 10:07:02;;;;;;;8.48;2.90;;;25.30;88.50;;;;;;5052429;28;20493;-66
2022/07/13 10:11:56;;;;;;;6.57;2.60;;;25.30;89.60;;;;;;5052515;28;20183;-66
2022/07/13 10:14:22;;;;;;;4.15;2.50;;;25.30;90.10;;;;;;5051685;28;20040;-67
2022/07/13 10:16:49;;;;;;;5.50;2.35;;;25.30;89.10;;;;;;5051995;28;20462;-66
2022/07/13 10:19:15;;;;;;;9.20;2.80;;;25.30;89.10;;;;;;5051725;28;20128;-67
2022/07/13 10:21:55;;;;;;;5.55;2.83;;;25.40;88.80;;;;;;5052128;28;20540;-69
2022/07/13 10:24:21;;;;;;;3.90;2.35;;;25.50;90.20;;;;;;5051155;28;20032;-67
2022/07/13 10:26:48;;;;;;;4.10;2.20;;;25.50;89.20;;;;;;5052000;28;20485;-68
2022/07/13 10:29:15;;;;;;;5.57;2.72;;;25.50;88.50;;;;;;5051221;28;20059;-68
2022/07/13 10:31:42;;;;;;;7.88;2.38;;;25.50;89.60;;;;;;5051791;28;20095;-67
2022/07/13 10:34:13;;;;;;;6.47;2.30;;;25.50;87.50;;;;;;5051981;28;20025;-69
2022/07/13 10:36:57;;;;;;;5.90;2.70;;;25.50;88.70;;;;;;5051898;28;20059;-69
2022/07/13 10:39:29;;;;;;;6.35;2.10;;;25.50;87.80;;;;;;5050145;28;20422;-69
2022/07/13 10:42:07;;;;;;;6.88;2.35;;;25.50;87.90;;;;;;5051616;28;20060;-70
2022/07/13 10:44:37;;;;;;;;;;;25.50;89.30;;;;;;5050368;28;20090;-69
2022/07/13 10:47:08;;;;;;;3.92;2.03;;;25.20;92.60;;;;;;5050038;28;20365;-70
2022/07/13 10:49:48;;;;;;;3.58;2.13;;;25.10;90.10;;;;;;5051149;28;20040;-74
2022/07/13 10:52:26;;;;;;;3.80;2.00;;;25.10;89.80;;;;;;5051224;28;20040;-70
2022/07/13 10:55:09;;;;;;;5.35;2.17;;;25.20;89.50;;;;;;5049891;28;20031;-71
2022/07/13 10:57:37;;;;;;;5.70;2.50;;;25.40;88.10;;;;;;5051146;28;20036;-69
2022/07/13 11:00:23;;;;;;;5.28;1.70;;;25.30;90.90;;;;;;5050029;28;20032;-74
2022/07/13 11:02:50;;;;;;;4.00;1.92;;;25.50;87.40;;;;;;5050876;28;20516;-69
2022/07/13 11:05:19;;;;;;;6.30;2.20;;;25.50;88.00;;;;;;5049774;28;20651;-69
2022/07/13 11:07:47;;;;;;;5.85;2.47;;;25.50;88.30;;;;;;5050737;28;20426;-69
2022/07/13 11:10:28;;;;;;;6.75;2.15;;;25.50;88.30;;;;;;5091370;23;20036;-71
2022/07/13 11:13:01;;;;;;;7.50;2.40;;;25.50;88.30;;;;;;5074088;28;20028;-72
2022/07/13 11:15:46;;;;;;;4.25;1.90;;;25.50;88.10;;;;;;5093262;28;20089;-71
2022/07/13 11:18:21;;;;;;;5.85;2.30;;;25.50;88.50;;;;;;5091194;28;20142;-71
2022/07/13 11:21:02;;;;;;;4.55;2.53;;;25.50;90.00;;;;;;5072574;28;20031;-72
2022/07/13 11:26:34;;;;;;;;;;;25.60;88.40;;;;;;5092041;28;20407;-72
2022/07/13 11:29:38;;;;;;;8.85;2.40;;;25.60;89.20;;;;;;5064807;28;20337;-73
2022/07/13 11:32:05;;;;;;;4.93;2.08;;;25.60;88.40;;;;;;5070016;28;20256;-72
2022/07/13 11:34:31;;;;;;;3.83;2.22;;;25.80;88.70;;;;;;5069390;28;20033;-72
2022/07/13 11:36:59;;;;;;;7.43;2.40;;;25.80;88.30;;;;;;5068585;28;20544;-71
2022/07/13 11:39:33;;;;;;;5.72;2.20;;;25.80;88.60;;;;;;5069268;28;20481;-72
2022/07/13 11:42:01;;;;;;;4.93;2.70;;;25.90;87.60;;;;;;5068247;28;20499;-70
2022/07/13 11:44:30;;;;;;;6.70;2.65;;;25.90;87.90;;;;;;5050245;28;20135;-70
2022/07/13 11:47:01;;;;;;;6.43;2.53;;;25.90;88.30;;;;;;5068370;28;20480;-71
2022/07/13 11:49:28;;;;;;;7.80;2.50;;;26.00;88.30;;;;;;5068512;28;20029;-70
2022/07/13 11:51:54;;;;;;;5.03;2.50;;;26.00;87.20;;;;;;5070608;28;20111;-70
2022/07/13 11:54:22;;;;;;;4.13;2.13;;;26.10;86.80;;;;;;5069926;28;20039;-71
2022/07/13 11:56:56;;;;;;;7.88;2.78;;;26.10;87.10;;;;;;5069920;28;20093;-71
2022/07/13 11:59:37;;;;;;;7.28;2.90;;;26.20;86.70;;;;;;5069230;28;20040;-71
2022/07/13 12:02:07;;;;;;;4.85;2.72;;;26.20;87.00;;;;;;5070134;28;20066;-71
2022/07/13 12:04:33;;;;;;;5.50;2.35;;;26.30;87.70;;;;;;5069658;28;20040;-71
2022/07/13 12:07:13;;;;;;;4.82;2.40;;;26.20;88.20;;;;;;5069709;28;20033;-71
2022/07/13 12:09:47;;;;;;;8.43;2.75;;;26.30;87.90;;;;;;5069292;28;20477;-70
2022/07/13 12:12:15;;;;;;;8.80;3.38;;;26.30;87.60;;;;;;5070245;28;20054;-70
2022/07/13 12:14:42;;;;;;;6.47;3.40;;;26.30;87.50;;;;;;5069281;28;20024;-68
2022/07/13 12:17:08;;;;;;;3.97;2.33;;;26.30;87.50;;;;;;5069571;28;20024;-68
2022/07/13 12:19:38;;;;;;;5.93;2.60;;;26.30;87.60;;;;;;5069471;28;20138;-69
2022/07/13 12:22:07;;;;;;;5.72;3.08;;;26.40;88.20;;;;;;5069716;28;20028;-69
2022/07/13 12:24:33;;;;;;;5.63;2.83;;;26.40;87.90;;;;;;5035093;28;20036;-69
2022/07/13 12:26:59;;;;;;;9.18;3.42;;;26.40;87.80;;;;;;5069408;28;20052;-68
2022/07/13 12:29:33;;;;;;;6.35;3.38;;;26.30;89.80;;;;;;5058444;28;20110;-69
2022/07/13 12:32:03;;;;;;;6.07;3.50;;;26.30;91.30;;;;;;5090255;28;20569;-69
2022/07/13 12:34:29;;;;;;;7.82;3.28;;;26.20;91.40;;;;;;5071641;28;20043;-71
2022/07/13 12:36:55;;;;;;;5.68;3.28;;;26.20;90.90;;;;;;5089444;28;20103;-69
2022/07/13 12:39:40;;;;;;;6.20;2.80;;;26.10;90.10;;;;;;5089314;28;20104;-70
2022/07/13 12:42:07;;;;;;;7.47;2.70;;;26.10;89.50;;;;;;5089780;28;20488;-69
2022/07/13 12:44:35;;;;;;;6.72;2.85;;;26.10;88.00;;;;;;5088706;28;20040;-70
2022/07/13 12:47:01;;;;;;;8.27;2.90;;;26.10;88.10;;;;;;5070666;28;20032;-70
2022/07/13 12:49:38;;;;;;;5.82;2.75;;;26.10;88.30;;;;;;5070713;28;20423;-70
2022/07/13 12:52:11;;;;;;;8.05;2.80;;;26.20;87.20;;;;;;5090969;28;20033;-70
2022/07/13 12:54:50;;;;;;;6.35;2.70;;;26.30;85.70;;;;;;5090723;28;20505;-70
2022/07/13 12:57:21;;;;;;;8.20;2.85;;;26.30;86.20;;;;;;5092043;28;20046;-70
2022/07/13 13:00:09;;;;;;;5.15;3.22;;;26.30;86.00;;;;;;5072501;28;20396;-69
2022/07/13 13:02:36;;;;;;;5.40;3.08;;;26.30;86.60;;;;;;5072301;28;20069;-70
2022/07/13 13:05:05;;;;;;;9.07;3.50;;;26.40;86.70;;;;;;5088790;28;20050;-70
2022/07/13 13:07:34;;;;;;;7.57;2.80;;;26.50;87.10;;;;;;5088769;28;20106;-69
2022/07/13 13:10:00;;;;;;;8.60;2.95;;;26.60;87.00;;;;;;5088676;28;20028;-68
2022/07/13 13:12:26;;;;;;;8.50;3.08;;;26.70;86.90;;;;;;5089460;28;20073;-69